createdAt,value
2019-04-21T00:01:54.529Z,4.67
2019-04-21T00:04:39.229Z,5.50
2019-04-21T00:07:13.472Z,5.37
2019-04-21T00:09:45.472Z,5.23
2019-04-21T00:12:15.336Z,5.27
2019-04-21T00:14:39.677Z,5.50
2019-04-21T00:17:05.375Z,6.33
2019-04-21T00:19:40.842Z,6.07
2019-04-21T00:22:23.747Z,5.87
2019-04-21T00:24:55.301Z,6.07
2019-04-21T00:27:30.884Z,6.10
2019-04-21T00:30:03.336Z,5.27
2019-04-21T00:32:25.363Z,5.87
2019-04-21T00:34:53.403Z,6.00
2019-04-21T00:37:24.078Z,5.53
2019-04-21T00:40:03.713Z,5.77
2019-04-21T00:42:34.345Z,5.53
2019-04-21T00:45:04.816Z,6.40
2019-04-21T00:47:34.165Z,5.97
2019-04-21T00:50:10.720Z,5.00
2019-04-21T00:53:05.620Z,5.07
2019-04-21T00:55:35.539Z,5.47
2019-04-21T00:58:03.508Z,5.70
2019-04-21T01:00:30.901Z,5.47
2019-04-21T01:03:02.746Z,5.73
2019-04-21T01:05:37.058Z,6.20
2019-04-21T01:07:59.389Z,5.70
2019-04-21T01:10:24.477Z,5.43
2019-04-21T01:13:03.991Z,6.57
2019-04-21T01:15:37.273Z,5.93
2019-04-21T01:18:05.090Z,5.37
2019-04-21T01:20:17.194Z,5.23
2019-04-21T01:22:43.175Z,5.60
2019-04-21T01:25:20.407Z,6.27
2019-04-21T01:27:59.315Z,6.23
2019-04-21T01:30:35.810Z,6.10
2019-04-21T01:33:07.634Z,5.70
2019-04-21T01:35:34.290Z,6.57
2019-04-21T01:38:06.779Z,6.60
2019-04-21T01:40:40.858Z,5.20
2019-04-21T01:43:07.619Z,5.70
2019-04-21T01:45:42.008Z,5.87
2019-04-21T01:48:02.495Z,5.13
2019-04-21T01:50:36.463Z,5.70
2019-04-21T01:53:17.497Z,5.90
2019-04-21T01:56:11.845Z,5.77
2019-04-21T01:58:41.671Z,6.00
2019-04-21T02:01:21.560Z,5.07
2019-04-21T02:03:52.674Z,5.90
2019-04-21T02:06:24.198Z,5.87
2019-04-21T02:08:49.443Z,5.30
2019-04-21T02:11:24.450Z,5.97
2019-04-21T02:13:57.650Z,6.63
2019-04-21T02:16:23.231Z,6.07
2019-04-21T02:18:52.595Z,6.90
2019-04-21T02:21:20.372Z,6.67
2019-04-21T02:24:01.677Z,6.20
2019-04-21T02:26:28.542Z,6.40
2019-04-21T02:31:39.526Z,5.90
2019-04-21T02:39:23.071Z,6.40
2019-04-21T02:41:45.656Z,7.27
2019-04-21T02:44:08.644Z,5.73
2019-04-21T02:46:38.201Z,6.37
2019-04-21T02:49:13.409Z,6.10
2019-04-21T02:51:58.715Z,6.00
2019-04-21T02:56:48.685Z,5.70
2019-04-21T02:59:17.248Z,5.30
2019-04-21T03:04:28.098Z,6.00
2019-04-21T03:09:35.891Z,6.17
2019-04-21T03:12:11.170Z,5.60
2019-04-21T03:14:48.118Z,6.87
2019-04-21T03:17:17.874Z,5.43
2019-04-21T03:25:04.402Z,5.60
2019-04-21T03:29:48.329Z,5.50
2019-04-21T03:37:25.157Z,6.80
2019-04-21T03:42:34.275Z,5.20
2019-04-21T03:47:23.449Z,10.00
2019-04-21T03:55:12.473Z,7.80
2019-04-21T03:57:59.896Z,7.63
2019-04-21T04:00:27.604Z,6.97
2019-04-21T04:03:27.877Z,6.00
2019-04-21T04:09:14.412Z,5.63
2019-04-21T04:11:37.730Z,5.90
2019-04-21T04:16:29.004Z,6.33
2019-04-21T04:19:01.537Z,5.60
2019-04-21T04:21:44.250Z,6.05
2019-04-21T04:24:05.009Z,6.50
2019-04-21T04:26:37.393Z,7.77
2019-04-21T04:36:43.429Z,6.80
2019-04-21T04:39:42.693Z,6.17
2019-04-21T04:45:08.188Z,7.45
2019-04-21T04:47:32.853Z,6.85
2019-04-21T04:49:54.986Z,7.08
2019-04-21T04:57:33.864Z,8.33
2019-04-21T05:00:01.230Z,7.90
2019-04-21T05:02:29.874Z,7.10
2019-04-21T05:08:39.513Z,6.97
2019-04-21T05:09:52.369Z,7.23
2019-04-21T05:12:22.776Z,7.23
2019-04-21T05:14:53.369Z,6.70
2019-04-21T05:17:31.109Z,5.73
2019-04-21T05:22:24.721Z,7.43
2019-04-21T05:24:48.040Z,7.17
2019-04-21T05:27:30.745Z,6.97
2019-04-21T05:30:12.789Z,6.27
2019-04-21T05:33:05.664Z,7.70
2019-04-21T05:35:48.928Z,6.47
2019-04-21T05:38:21.414Z,6.57
2019-04-21T05:40:48.369Z,5.43
2019-04-21T05:43:30.900Z,5.70
2019-04-21T05:46:01.139Z,5.40
2019-04-21T05:48:36.453Z,6.40
2019-04-21T05:50:59.244Z,5.53
2019-04-21T05:53:39.304Z,5.20
2019-04-21T05:56:03.619Z,4.80
2019-04-21T05:58:31.603Z,4.73
2019-04-21T06:01:31.502Z,5.10
2019-04-21T06:03:47.662Z,5.60
2019-04-21T06:06:16.420Z,5.90
2019-04-21T06:08:42.410Z,5.37
2019-04-21T06:11:19.055Z,6.00
2019-04-21T06:16:07.308Z,5.43
2019-04-21T06:18:47.068Z,4.23
2019-04-21T06:21:10.834Z,4.23
2019-04-21T06:23:42.287Z,4.63
2019-04-21T06:26:26.966Z,4.67
2019-04-21T06:28:46.582Z,4.37
2019-04-21T06:31:46.957Z,4.50
2019-04-21T06:33:44.951Z,4.30
2019-04-21T06:36:36.151Z,4.60
2019-04-21T06:44:08.998Z,4.23
2019-04-21T06:46:35.397Z,4.50
2019-04-21T06:49:03.131Z,4.27
2019-04-21T06:51:33.741Z,5.03
2019-04-21T06:59:05.967Z,4.47
2019-04-21T07:01:36.004Z,3.70
2019-04-21T07:04:13.189Z,4.37
2019-04-21T07:06:46.948Z,3.90
2019-04-21T07:09:16.032Z,4.10
2019-04-21T07:11:36.812Z,3.87
2019-04-21T07:14:27.320Z,3.77
2019-04-21T07:16:38.703Z,3.60
2019-04-21T07:19:32.737Z,4.10
2019-04-21T07:21:39.284Z,4.03
2019-04-21T07:24:14.485Z,3.00
2019-04-21T07:26:44.472Z,4.20
2019-04-21T07:29:17.062Z,3.70
2019-04-21T07:31:47.631Z,3.10
2019-04-21T07:34:13.951Z,2.50
2019-04-21T07:36:51.843Z,3.40
2019-04-21T07:39:11.591Z,3.40
2019-04-21T07:41:42.505Z,3.00
2019-04-21T07:44:04.078Z,3.23
2019-04-21T07:46:34.875Z,3.33
2019-04-21T07:49:15.549Z,3.23
2019-04-21T07:52:06.005Z,2.90
2019-04-21T07:54:37.281Z,3.13
2019-04-21T07:56:59.386Z,3.40
2019-04-21T08:02:10.478Z,3.13
2019-04-21T08:04:53.975Z,2.73
2019-04-21T08:07:07.235Z,3.80
2019-04-21T08:09:41.872Z,3.17
2019-04-21T08:12:04.053Z,3.20
2019-04-21T08:14:43.873Z,3.30
2019-04-21T08:17:10.951Z,2.90
2019-04-21T08:19:36.898Z,2.87
2019-04-21T08:22:15.529Z,2.90
2019-04-21T08:24:47.404Z,2.80
2019-04-21T08:27:20.276Z,2.90
2019-04-21T08:29:47.599Z,2.80
2019-04-21T08:32:14.519Z,2.60
2019-04-21T08:34:55.983Z,2.80
2019-04-21T08:37:18.765Z,2.70
2019-04-21T08:39:59.707Z,2.60
2019-04-21T08:42:18.488Z,2.40
2019-04-21T08:44:46.874Z,2.40
2019-04-21T08:47:19.299Z,2.90
2019-04-21T08:49:49.063Z,2.60
2019-04-21T08:52:28.263Z,3.40
2019-04-21T08:55:00.309Z,3.20
2019-04-21T08:57:41.626Z,2.90
2019-04-21T09:00:26.008Z,3.00
2019-04-21T09:03:02.387Z,3.20
2019-04-21T09:05:26.619Z,3.17
2019-04-21T09:07:57.205Z,2.50
2019-04-21T09:10:31.416Z,2.87
2019-04-21T09:13:00.266Z,3.00
2019-04-21T09:15:30.896Z,5.30
2019-04-21T09:17:53.222Z,2.57
2019-04-21T09:20:33.883Z,2.80
2019-04-21T09:23:00.712Z,2.67
2019-04-21T09:25:40.728Z,2.30
2019-04-21T09:28:00.758Z,3.07
2019-04-21T09:30:15.242Z,2.70
2019-04-21T09:32:44.569Z,2.47
2019-04-21T09:35:15.482Z,2.57
2019-04-21T09:37:51.686Z,2.87
2019-04-21T09:40:16.859Z,2.53
2019-04-21T09:42:55.146Z,2.80
2019-04-21T09:45:15.780Z,3.00
2019-04-21T09:47:55.661Z,3.10
2019-04-21T09:50:17.374Z,3.40
2019-04-21T09:52:54.214Z,3.53
2019-04-21T09:55:20.752Z,2.80
2019-04-21T09:57:53.585Z,2.93
2019-04-21T10:00:21.161Z,2.80
2019-04-21T10:02:55.393Z,2.80
2019-04-21T10:05:19.165Z,3.10
2019-04-21T10:07:48.944Z,2.70
2019-04-21T10:10:19.143Z,3.37
2019-04-21T10:12:48.134Z,2.83
2019-04-21T10:15:17.014Z,3.43
2019-04-21T10:17:49.794Z,2.87
2019-04-21T10:20:18.341Z,3.13
2019-04-21T10:22:47.151Z,3.07
2019-04-21T10:25:16.632Z,3.20
2019-04-21T10:27:45.497Z,2.80
2019-04-21T10:30:14.357Z,2.63
2019-04-21T10:32:43.138Z,3.00
2019-04-21T10:35:12.893Z,3.10
2019-04-21T10:37:49.843Z,2.60
2019-04-21T10:40:13.623Z,2.60
2019-04-21T10:42:42.693Z,3.40
2019-04-21T10:45:12.659Z,3.20
2019-04-21T10:47:42.954Z,2.83
2019-04-21T10:50:13.103Z,2.70
2019-04-21T10:53:00.796Z,3.10
2019-04-21T10:55:44.638Z,2.80
2019-04-21T10:58:08.551Z,2.50
2019-04-21T11:00:37.613Z,3.40
2019-04-21T11:03:33.257Z,2.80
2019-04-21T11:06:03.236Z,2.90
2019-04-21T11:08:37.979Z,3.10
2019-04-21T11:11:03.641Z,2.73
2019-04-21T11:13:32.718Z,3.30
2019-04-21T11:16:01.635Z,3.17
2019-04-21T11:18:31.691Z,2.47
2019-04-21T11:21:00.856Z,2.60
2019-04-21T11:23:31.119Z,2.30
2019-04-21T11:26:00.228Z,2.37
2019-04-21T11:28:29.260Z,2.70
2019-04-21T11:30:58.266Z,2.77
2019-04-21T11:33:27.196Z,3.03
2019-04-21T11:35:57.325Z,2.47
2019-04-21T11:38:51.292Z,2.63
2019-04-21T11:41:05.522Z,2.83
2019-04-21T11:43:35.147Z,3.10
2019-04-21T11:46:04.550Z,2.80
2019-04-21T11:48:34.494Z,2.83
2019-04-21T11:51:04.662Z,3.03
2019-04-21T11:53:34.790Z,2.20
2019-04-21T11:56:04.877Z,3.07
2019-04-21T11:58:34.063Z,2.73
2019-04-21T12:01:05.478Z,2.80
2019-04-21T12:03:35.771Z,2.70
2019-04-21T12:06:05.899Z,2.40
2019-04-21T12:08:40.717Z,2.90
2019-04-21T12:11:05.399Z,2.73
2019-04-21T12:13:34.174Z,2.40
2019-04-21T12:16:03.350Z,2.63
2019-04-21T12:18:33.969Z,3.00
2019-04-21T12:21:03.276Z,2.43
2019-04-21T12:23:32.512Z,2.70
2019-04-21T12:26:01.483Z,3.37
2019-04-21T12:28:30.513Z,2.57
2019-04-21T12:31:00.070Z,2.50
2019-04-21T12:33:46.158Z,2.70
2019-04-21T12:36:15.883Z,3.03
2019-04-21T12:38:53.121Z,2.50
2019-04-21T12:41:15.482Z,2.90
2019-04-21T12:43:44.553Z,2.50
2019-04-21T12:46:13.968Z,2.40
2019-04-21T12:48:44.260Z,2.70
2019-04-21T12:51:13.330Z,2.70
2019-04-21T12:53:43.399Z,2.33
2019-04-21T12:56:13.548Z,2.90
2019-04-21T12:58:43.549Z,2.80
2019-04-21T13:01:12.622Z,2.67
2019-04-21T13:03:41.794Z,2.70
2019-04-21T13:06:11.729Z,2.00
2019-04-21T13:08:51.904Z,2.33
2019-04-21T13:11:11.518Z,2.40
2019-04-21T13:13:41.924Z,2.63
2019-04-21T13:16:11.607Z,2.53
2019-04-21T13:18:41.529Z,2.90
2019-04-21T13:21:10.150Z,2.67
2019-04-21T13:23:39.133Z,1.83
2019-04-21T13:26:09.597Z,2.43
2019-04-21T13:28:38.482Z,2.90
2019-04-21T13:31:08.497Z,2.20
2019-04-21T13:33:37.758Z,2.80
2019-04-21T13:36:07.634Z,2.50
2019-04-21T13:38:50.474Z,2.50
2019-04-21T13:41:32.578Z,2.50
2019-04-21T13:44:10.986Z,3.67
2019-04-21T13:46:40.701Z,2.40
2019-04-21T13:49:09.642Z,2.40
2019-04-21T13:51:38.576Z,2.50
2019-04-21T13:54:07.557Z,2.77
2019-04-21T13:56:36.577Z,2.87
2019-04-21T13:59:06.506Z,2.43
2019-04-21T14:01:35.916Z,3.00
2019-04-21T14:04:05.285Z,2.80
2019-04-21T14:06:34.361Z,2.60
2019-04-21T14:09:03.487Z,2.80
2019-04-21T14:11:33.285Z,2.50
2019-04-21T14:14:02.701Z,2.37
2019-04-21T14:16:32.000Z,2.83
2019-04-21T14:19:01.464Z,2.60
2019-04-21T14:21:31.405Z,2.33
2019-04-21T14:24:01.246Z,2.87
2019-04-21T14:26:30.153Z,2.97
2019-04-21T14:28:59.171Z,2.60
2019-04-21T14:31:28.439Z,3.07
2019-04-21T14:33:58.297Z,2.93
2019-04-21T14:36:28.676Z,2.30
2019-04-21T14:38:58.694Z,2.83
2019-04-21T14:41:28.481Z,3.00
2019-04-21T14:43:58.534Z,2.50
2019-04-21T14:46:35.270Z,2.50
2019-04-21T14:49:33.067Z,2.83
2019-04-21T14:52:12.835Z,2.27
2019-04-21T14:54:58.914Z,2.00
2019-04-21T14:57:27.744Z,2.67
2019-04-21T14:59:57.320Z,2.60
2019-04-21T15:02:27.702Z,2.70
2019-04-21T15:04:57.790Z,2.50
2019-04-21T15:07:27.580Z,3.00
2019-04-21T15:10:04.785Z,2.77
2019-04-21T15:12:27.858Z,2.63
2019-04-21T15:14:58.159Z,2.83
2019-04-21T15:17:29.115Z,2.73
2019-04-21T15:20:02.517Z,2.43
2019-04-21T15:22:28.336Z,2.60
2019-04-21T15:24:58.446Z,2.93
2019-04-21T15:27:27.568Z,3.00
2019-04-21T15:29:56.529Z,2.33
2019-04-21T15:32:26.513Z,2.20
2019-04-21T15:34:56.158Z,2.63
2019-04-21T15:37:25.947Z,2.47
2019-04-21T15:39:56.253Z,2.93
2019-04-21T15:42:26.358Z,2.30
2019-04-21T15:44:56.700Z,3.00
2019-04-21T15:47:26.224Z,2.73
2019-04-21T15:50:04.706Z,2.60
2019-04-21T15:52:29.950Z,2.30
2019-04-21T15:55:06.263Z,2.80
2019-04-21T15:57:42.697Z,3.03
2019-04-21T16:00:22.802Z,2.50
2019-04-21T16:02:52.742Z,2.50
2019-04-21T16:05:22.508Z,2.70
2019-04-21T16:07:52.024Z,2.23
2019-04-21T16:10:30.955Z,2.33
2019-04-21T16:12:53.736Z,2.40
2019-04-21T16:15:22.993Z,2.23
2019-04-21T16:17:53.166Z,2.93
2019-04-21T16:20:22.090Z,2.73
2019-04-21T16:22:50.680Z,2.37
2019-04-21T16:25:21.031Z,2.77
2019-04-21T16:27:51.033Z,2.50
2019-04-21T16:30:19.946Z,2.87
2019-04-21T16:32:49.888Z,3.30
2019-04-21T16:35:20.522Z,3.00
2019-04-21T16:37:49.808Z,2.87
2019-04-21T16:40:19.285Z,2.60
2019-04-21T16:42:48.141Z,2.80
2019-04-21T16:45:16.893Z,2.33
2019-04-21T16:47:48.405Z,2.70
2019-04-21T16:50:16.224Z,3.00
2019-04-21T16:52:52.275Z,2.90
2019-04-21T16:55:33.166Z,2.93
2019-04-21T16:58:23.175Z,3.27
2019-04-21T17:01:01.732Z,2.87
2019-04-21T17:03:26.635Z,2.30
2019-04-21T17:05:56.244Z,3.27
2019-04-21T17:08:26.133Z,3.60
2019-04-21T17:11:03.053Z,3.07
2019-04-21T17:13:25.574Z,3.20
2019-04-21T17:16:16.917Z,3.00
2019-04-21T17:18:44.902Z,2.93
2019-04-21T17:21:00.951Z,3.30
2019-04-21T17:23:27.354Z,3.07
2019-04-21T17:25:57.170Z,2.93
2019-04-21T17:28:26.114Z,3.10
2019-04-21T17:30:54.671Z,2.77
2019-04-21T17:33:27.963Z,3.70
2019-04-21T17:35:54.054Z,3.53
2019-04-21T17:38:23.920Z,3.40
2019-04-21T17:40:53.842Z,3.00
2019-04-21T17:43:23.745Z,4.03
2019-04-21T17:45:53.275Z,3.20
2019-04-21T17:48:23.297Z,3.10
2019-04-21T17:51:07.644Z,3.10
2019-04-21T17:53:49.327Z,3.90
2019-04-21T17:56:46.364Z,3.23
2019-04-21T17:59:08.652Z,3.90
2019-04-21T18:01:37.554Z,3.80
2019-04-21T18:04:12.599Z,3.17
2019-04-21T18:06:47.998Z,3.43
2019-04-21T18:09:25.529Z,4.30
2019-04-21T18:11:49.345Z,3.13
2019-04-21T18:13:59.720Z,3.90
2019-04-21T18:16:36.380Z,3.50
2019-04-21T18:18:59.122Z,3.80
2019-04-21T18:21:34.671Z,3.87
2019-04-21T18:24:11.694Z,4.03
2019-04-21T18:26:46.815Z,4.20
2019-04-21T18:29:07.587Z,4.10
2019-04-21T18:31:42.730Z,3.60
2019-04-21T18:34:27.791Z,4.53
2019-04-21T18:36:59.353Z,3.90
2019-04-21T18:39:52.731Z,4.03
2019-04-21T18:42:48.130Z,4.10
2019-04-21T18:48:31.583Z,4.03
2019-04-21T18:51:21.941Z,3.17
2019-04-21T18:54:16.138Z,3.57
2019-04-21T18:56:25.265Z,2.53
2019-04-21T18:58:54.327Z,3.30
2019-04-21T19:01:27.842Z,4.03
2019-04-21T19:03:56.009Z,3.47
2019-04-21T19:06:43.801Z,5.80
2019-04-21T19:09:11.318Z,4.80
2019-04-21T19:11:42.982Z,4.87
2019-04-21T19:16:59.065Z,4.23
2019-04-21T19:21:55.431Z,3.40
2019-04-21T19:26:58.840Z,3.60
2019-04-21T19:31:54.677Z,3.60
2019-04-21T19:34:14.466Z,3.10
2019-04-21T19:36:48.795Z,3.50
2019-04-21T19:39:16.151Z,3.00
2019-04-21T19:41:55.533Z,3.50
2019-04-21T19:44:26.178Z,3.50
2019-04-21T19:47:01.297Z,3.13
2019-04-21T19:49:36.463Z,3.10
2019-04-21T19:51:52.286Z,3.90
2019-04-21T19:54:20.770Z,3.83
2019-04-21T19:56:43.051Z,3.87
2019-04-21T19:59:22.053Z,3.60
2019-04-21T20:01:45.112Z,3.50
2019-04-21T20:04:14.690Z,4.40
2019-04-21T20:06:52.181Z,4.80
2019-04-21T20:09:32.167Z,3.30
2019-04-21T20:12:02.871Z,3.50
2019-04-21T20:14:51.017Z,2.93
2019-04-21T20:16:59.392Z,4.60
2019-04-21T20:19:17.487Z,3.73
2019-04-21T20:21:47.073Z,3.73
2019-04-21T20:24:21.561Z,6.27
2019-04-21T20:26:59.172Z,4.37
2019-04-21T20:29:37.733Z,4.23
2019-04-21T20:32:14.653Z,4.27
2019-04-21T20:34:38.764Z,4.20
2019-04-21T20:37:09.333Z,3.63
2019-04-21T20:39:24.210Z,4.53
2019-04-21T20:42:03.821Z,5.20
2019-04-21T20:44:38.624Z,4.10
2019-04-21T20:47:05.133Z,3.70
2019-04-21T20:49:34.079Z,3.60
2019-04-21T20:54:40.799Z,3.60
2019-04-21T20:57:12.614Z,3.90
2019-04-21T20:59:37.506Z,3.33
2019-04-21T21:02:14.133Z,2.80
2019-04-21T21:04:32.661Z,4.07
2019-04-21T21:07:28.026Z,3.60
2019-04-21T21:09:43.002Z,3.40
2019-04-21T21:12:34.314Z,3.77
2019-04-21T21:14:43.849Z,3.47
2019-04-21T21:17:36.185Z,2.97
2019-04-21T21:19:53.278Z,3.73
2019-04-21T21:22:14.719Z,3.60
2019-04-21T21:24:50.511Z,3.53
2019-04-21T21:27:29.147Z,2.83
2019-04-21T21:29:59.022Z,4.57
2019-04-21T21:32:37.483Z,3.57
2019-04-21T21:35:08.039Z,4.10
2019-04-21T21:37:42.068Z,3.60
2019-04-21T21:40:22.290Z,3.47
2019-04-21T21:42:40.136Z,3.43
2019-04-21T21:45:17.934Z,4.17
2019-04-21T21:48:00.271Z,3.70
2019-04-21T21:50:24.145Z,3.50
2019-04-21T21:52:55.118Z,3.50
2019-04-21T21:55:25.501Z,4.33
2019-04-21T21:58:01.280Z,3.53
2019-04-21T22:00:30.290Z,3.77
2019-04-21T22:03:11.943Z,2.93
2019-04-21T22:05:37.535Z,3.50
2019-04-21T22:08:02.446Z,3.47
2019-04-21T22:10:31.636Z,3.57
2019-04-21T22:13:08.248Z,3.10
2019-04-21T22:15:33.697Z,3.83
2019-04-21T22:18:24.724Z,3.17
2019-04-21T22:20:50.227Z,3.17
2019-04-21T22:23:12.890Z,3.53
2019-04-21T22:25:39.873Z,4.00
2019-04-21T22:28:11.672Z,3.90
2019-04-21T22:30:45.682Z,3.53
2019-04-21T22:33:19.357Z,4.50
2019-04-21T22:35:54.201Z,3.77
2019-04-21T22:38:37.337Z,3.10
2019-04-21T22:41:06.072Z,3.13
2019-04-21T22:43:31.695Z,3.70
2019-04-21T22:45:56.823Z,3.23
2019-04-21T22:48:28.651Z,3.23
2019-04-21T22:51:02.492Z,3.43
2019-04-21T22:53:37.421Z,4.30
2019-04-21T22:56:12.514Z,3.70
2019-04-21T22:58:42.260Z,3.33
2019-04-21T23:01:13.228Z,4.07
2019-04-21T23:03:49.244Z,3.40
2019-04-21T23:06:19.205Z,3.17
2019-04-21T23:08:45.667Z,4.30
2019-04-21T23:11:16.100Z,4.03
2019-04-21T23:13:57.638Z,3.97
2019-04-21T23:16:27.065Z,4.40
2019-04-21T23:19:13.113Z,3.53
2019-04-21T23:21:36.246Z,4.30
2019-04-21T23:24:08.731Z,3.23
2019-04-21T23:26:46.258Z,4.40
2019-04-21T23:29:26.189Z,3.80
2019-04-21T23:31:50.238Z,4.03
2019-04-21T23:34:06.556Z,3.77
2019-04-21T23:36:41.864Z,4.17
2019-04-21T23:39:17.029Z,3.83
2019-04-21T23:41:43.518Z,3.50
2019-04-21T23:44:12.777Z,3.40
2019-04-21T23:46:42.616Z,3.33
2019-04-21T23:49:26.887Z,3.63
2019-04-21T23:51:50.521Z,3.43
2019-04-21T23:54:19.494Z,4.20
2019-04-21T23:56:51.760Z,3.97
2019-04-21T23:59:22.459Z,4.27
